Portada
METAR-TAF:

METAR-TAF

Aeroports :

Krasnodar, Rússia

latitud: 45-02N, longitud: 039-09E, altitud: 33 m

Observació

L'informe es va fer fa 31 minuts, a les 16:00 UTC
Vent calma
Temperatura 27°C
Humitat 51%
Pressió 1006 hPa
Visibilitat 10 km o més
Escasses núvols

METAR: URKK 171600Z 00000MPS 9999 FEW/// 27/16 Q1006 R23L/CLRD70 NOSIG RMK QFE751

Hora: 19:31 (16:31 UTC)

Pronòstic

L'informe es va fer fa 2 hores i 35 minuts, a les 13:56 UTC
Pronòstic vàlid del 17 a les 15 UTC al 18 a les 15 UTC
Vent 6 kt del Nord amb ràfegues de 16 kt
Visibilitat 10 km o més
Núvols disperses a una alçada de 3000 ft, Cumulonimbus.
Temporalment
l' 18 a les 06 UTC al 18 a les 15 UTC
Vent 12 kt del Nord-Est amb ràfegues de 23 kt
Visibilitat: 3100 m
Núvols disperses a una alçada de 1100 ft
Cel ennuvolat a una alçada de 2000 ft, Cumulonimbus.
tempesta, pluja

TAF: URKK 171356Z 1715/1815 01003G08MPS 9999 SCT030CB TEMPO 1806/1815 04006G12MPS 3100 -TSRA SCT011 BKN020CB

Observacions i pronòstics meteorològics de més de 4000 aeroports (METAR i TAF).

Les estacions disponibles són els punts grocs i vermells al mapa.

Posi el ratolí al punt desitjat per veure el nom de l'estació.

Feu clic per veure les observacions i els pronòstics meteorològics.

Per canviar el mapa: feu clic els botons verds amb una creu de color negre per apropar; al botó verd amb un guió per allunyar la imatge; o en les fletxes verdes per a mapes adjacents.


METAR-TAF: